Time;durP1;ratioP1;P1;durP2;ratioP2;P2;SDS_P1;SDS_P2;PMS_P1;PMS_P2;Temp;Humidity;BMP_temperature;BMP_pressure;BME280_temperature;BME280_humidity;BME280_pressure;Samples;Min_cycle;Max_cycle;Signal;HPM_P1;HPM_P2
2022/10/17 00:01:29;;;;;;;17.90;10.90;;;;;;;13.69;85.61;101738.84;5023820;28;20410;-72
2022/10/17 00:03:58;;;;;;;17.17;11.53;;;;;;;13.60;86.22;101737.34;5020412;28;20954;-70
2022/10/17 00:06:27;;;;;;;11.90;10.43;;;;;;;13.55;86.33;101737.09;5022390;28;20399;-70
2022/10/17 00:08:56;;;;;;;12.43;11.03;;;;;;;13.53;86.61;101742.72;5006891;28;20463;-71
2022/10/17 00:11:25;;;;;;;16.80;10.23;;;;;;;13.59;86.19;101743.81;5028830;28;20406;-70
2022/10/17 00:13:56;;;;;;;15.13;9.93;;;;;;;13.55;86.66;101747.97;5019452;28;20871;-69
2022/10/17 00:16:26;;;;;;;17.90;10.70;;;;;;;13.53;86.89;101744.59;5017836;28;20408;-70
2022/10/17 00:18:56;;;;;;;12.33;10.07;;;;;;;13.55;86.69;101728.94;5017934;28;20469;-71
2022/10/17 00:21:25;;;;;;;18.53;12.60;;;;;;;13.50;86.95;101721.41;5027292;28;20407;-70
2022/10/17 00:23:54;;;;;;;15.70;13.20;;;;;;;13.56;86.54;101720.56;5024173;28;20447;-69
2022/10/17 00:26:23;;;;;;;15.80;12.60;;;;;;;13.48;86.97;101716.16;5028451;28;20415;-70
2022/10/17 00:28:55;;;;;;;11.17;9.93;;;;;;;13.47;87.20;101732.66;5019711;28;20568;-71
2022/10/17 00:31:27;;;;;;;11.17;9.27;;;;;;;13.42;87.55;101733.25;5028254;28;20411;-70
2022/10/17 00:33:55;;;;;;;12.67;9.47;;;;;;;13.45;87.60;101724.72;5020812;28;20918;-71
2022/10/17 00:36:27;;;;;;;13.73;9.00;;;;;;;13.44;87.65;101717.59;5022293;28;20438;-69
2022/10/17 00:38:59;;;;;;;11.47;10.07;;;;;;;13.41;87.75;101712.53;5004575;28;20474;-71
2022/10/17 00:41:30;;;;;;;10.90;8.93;;;;;;;13.38;88.04;101715.66;5022763;28;20399;-70
2022/10/17 00:44:01;;;;;;;13.03;9.30;;;;;;;13.41;88.14;101720.69;5021198;28;20449;-69
2022/10/17 00:46:32;;;;;;;13.20;8.87;;;;;;;13.37;88.24;101722.13;5025498;28;20448;-71
2022/10/17 00:49:05;;;;;;;14.37;10.50;;;;;;;13.41;88.47;101726.13;5000113;28;20447;-70
2022/10/17 00:51:38;;;;;;;14.10;9.60;;;;;;;13.40;88.82;101735.34;5020120;28;20415;-69
2022/10/17 00:54:08;;;;;;;11.50;9.60;;;;;;;13.45;88.56;101738.31;5009876;28;20498;-70
2022/10/17 00:56:39;;;;;;;12.87;8.43;;;;;;;13.48;88.47;101743.34;5019128;28;20395;-71
2022/10/17 00:59:12;;;;;;;10.87;9.33;;;;;;;13.50;88.53;101740.44;5017689;28;20460;-71
2022/10/17 01:01:44;;;;;;;12.70;9.33;;;;;;;13.51;88.48;101752.16;5003103;28;20422;-72
2022/10/17 01:04:14;;;;;;;11.83;9.13;;;;;;;13.57;88.32;101743.16;5003427;28;20452;-70
2022/10/17 01:06:44;;;;;;;14.17;10.10;;;;;;;13.62;87.53;101737.97;5021129;28;20472;-70
2022/10/17 01:09:13;;;;;;;12.03;8.33;;;;;;;13.63;87.35;101723.31;5012660;28;20442;-71
2022/10/17 01:11:50;;;;;;;15.00;9.60;;;;;;;13.61;87.31;101711.78;5019637;28;20423;-70
2022/10/17 01:14:28;;;;;;;9.77;8.87;;;;;;;13.55;87.53;101712.63;5022045;28;20419;-71
2022/10/17 01:17:05;;;;;;;9.83;8.50;;;;;;;13.46;88.25;101717.38;5021173;28;20403;-71
2022/10/17 01:19:50;;;;;;;14.60;8.57;;;;;;;13.34;88.77;101714.41;5022015;28;20450;-70
2022/10/17 01:22:27;;;;;;;14.93;9.43;;;;;;;13.23;89.55;101717.66;5012711;28;20752;-70
2022/10/17 01:25:23;;;;;;;10.50;9.33;;;;;;;13.09;90.16;101710.44;5022077;28;20907;-70
2022/10/17 01:28:18;;;;;;;10.33;7.17;;;;;;;12.98;90.72;101713.69;5003518;28;20554;-69
2022/10/17 01:30:59;;;;;;;14.50;8.10;;;;;;;12.90;91.57;101722.00;5024953;28;20412;-71
2022/10/17 01:33:43;;;;;;;11.07;8.30;;;;;;;12.83;92.18;101711.06;5010555;28;20444;-70
2022/10/17 01:36:19;;;;;;;12.17;7.90;;;;;;;12.77;92.68;101716.47;5039562;28;20440;-70
2022/10/17 01:38:53;;;;;;;10.10;7.97;;;;;;;12.85;93.61;101708.16;5011353;28;20795;-70
2022/10/17 01:41:31;;;;;;;10.17;7.97;;;;;;;13.03;93.82;101703.06;5027691;28;20426;-71
2022/10/17 01:44:04;;;;;;;8.63;7.60;;;;;;;13.26;92.17;101698.25;5007325;28;20437;-71
2022/10/17 01:46:38;;;;;;;11.20;7.43;;;;;;;13.27;91.91;101690.91;5022580;28;20459;-71
2022/10/17 01:49:11;;;;;;;12.47;7.80;;;;;;;13.24;91.59;101694.06;4999969;28;20708;-70
2022/10/17 01:51:43;;;;;;;9.47;7.27;;;;;;;13.21;91.87;101697.19;5032692;28;20773;-70
2022/10/17 01:54:18;;;;;;;12.53;8.97;;;;;;;13.12;92.17;101701.91;5006707;28;20445;-72
2022/10/17 01:56:52;;;;;;;8.17;7.03;;;;;;;13.01;92.70;101694.31;5014336;28;20452;-71
2022/10/17 01:59:25;;;;;;;9.90;7.10;;;;;;;13.02;92.79;101691.34;5022845;28;20475;-70
2022/10/17 02:01:59;;;;;;;10.13;7.87;;;;;;;12.91;94.04;101686.50;5013625;28;20426;-71
2022/10/17 02:04:29;;;;;;;8.73;7.93;;;;;;;12.94;94.68;101688.81;5022892;28;20436;-71
2022/10/17 02:07:05;;;;;;;14.13;7.40;;;;;;;12.92;94.62;101690.06;5021891;28;20479;-71
2022/10/17 02:09:35;;;;;;;8.67;7.50;;;;;;;12.79;94.46;101688.06;5008643;28;20441;-70
2022/10/17 02:12:20;;;;;;;9.80;7.80;;;;;;;12.69;95.25;101693.00;5000557;28;20440;-70
2022/10/17 02:15:09;;;;;;;10.53;7.87;;;;;;;12.61;95.82;101695.88;5005247;28;20531;-70
2022/10/17 02:17:51;;;;;;;9.60;7.40;;;;;;;12.51;96.18;101695.34;5008021;28;20450;-71
2022/10/17 02:20:25;;;;;;;9.10;7.70;;;;;;;12.50;97.31;101693.66;5007696;28;20415;-71
2022/10/17 02:23:00;;;;;;;13.13;8.83;;;;;;;12.63;99.56;101694.63;5020295;28;21105;-71
2022/10/17 02:25:40;;;;;;;10.40;6.23;;;;;;;12.81;100.00;101685.16;5023844;28;20459;-71
2022/10/17 02:28:19;;;;;;;7.53;5.87;;;;;;;13.00;100.00;101692.63;5005290;28;21002;-70
2022/10/17 02:30:55;;;;;;;7.37;6.53;;;;;;;13.16;100.00;101692.34;5013096;28;20461;-69
2022/10/17 02:33:29;;;;;;;8.47;6.40;;;;;;;13.26;100.00;101695.53;5003780;28;20419;-72
2022/10/17 02:36:03;;;;;;;7.97;6.47;;;;;;;13.46;100.00;101685.59;5024306;28;20434;-73
2022/10/17 02:38:34;;;;;;;6.90;6.20;;;;;;;13.59;100.00;101678.53;5014089;28;20496;-70
2022/10/17 02:41:04;;;;;;;8.10;7.30;;;;;;;13.69;100.00;101684.44;5019904;28;20486;-70
2022/10/17 02:43:34;;;;;;;7.70;6.43;;;;;;;13.80;100.00;101686.56;5039064;28;20424;-70
2022/10/17 02:46:03;;;;;;;8.10;5.87;;;;;;;13.89;100.00;101682.63;5018905;28;20448;-71
2022/10/17 02:48:41;;;;;;;8.50;6.10;;;;;;;14.01;100.00;101680.97;5010035;28;20448;-72
2022/10/17 02:51:19;;;;;;;8.17;6.03;;;;;;;14.01;100.00;101680.97;5009295;28;20858;-71
2022/10/17 02:53:58;;;;;;;6.50;5.80;;;;;;;13.93;100.00;101670.28;5012447;28;20418;-71
2022/10/17 02:56:30;;;;;;;5.90;5.13;;;;;;;14.08;100.00;101672.84;4995581;28;20412;-70
2022/10/17 02:59:02;;;;;;;6.37;5.53;;;;;;;14.08;100.00;101679.13;5000570;28;20480;-72
2022/10/17 03:01:31;;;;;;;7.07;6.37;;;;;;;14.04;100.00;101672.38;5003550;28;20437;-70
2022/10/17 03:04:10;;;;;;;5.80;5.00;;;;;;;14.07;100.00;101677.44;5024604;28;20472;-72
2022/10/17 03:06:40;;;;;;;6.17;5.60;;;;;;;14.11;100.00;101673.25;5003097;28;20479;-70
2022/10/17 03:09:10;;;;;;;7.60;6.77;;;;;;;14.12;100.00;101664.06;5007849;28;20435;-70
2022/10/17 03:11:39;;;;;;;6.10;5.17;;;;;;;14.08;100.00;101665.50;5009653;28;20422;-70
2022/10/17 03:14:09;;;;;;;8.53;5.50;;;;;;;14.15;100.00;101666.34;5014660;28;20438;-69
2022/10/17 03:16:39;;;;;;;7.60;6.20;;;;;;;14.18;100.00;101662.38;5023058;28;20416;-70
2022/10/17 03:19:09;;;;;;;5.60;5.20;;;;;;;14.20;100.00;101669.28;5009800;28;20950;-72
2022/10/17 03:21:38;;;;;;;5.97;5.47;;;;;;;14.31;100.00;101673.28;5023305;28;20439;-70
2022/10/17 03:24:08;;;;;;;7.27;6.00;;;;;;;14.30;100.00;101677.88;5019766;28;20452;-71
2022/10/17 03:26:37;;;;;;;11.37;5.80;;;;;;;14.30;100.00;101682.50;5005916;28;20522;-71
2022/10/17 03:29:08;;;;;;;6.43;5.83;;;;;;;14.23;100.00;101674.31;5004247;28;20905;-71
2022/10/17 03:31:37;;;;;;;5.43;4.93;;;;;;;14.32;100.00;101667.66;5007245;28;20552;-70
2022/10/17 03:34:09;;;;;;;6.13;5.23;;;;;;;14.23;100.00;101660.69;5001883;28;20834;-70
2022/10/17 03:36:38;;;;;;;7.23;5.13;;;;;;;14.42;100.00;101655.53;5024415;28;20503;-70
2022/10/17 03:39:07;;;;;;;9.20;7.00;;;;;;;14.36;100.00;101659.91;5006655;28;20979;-70
2022/10/17 03:41:36;;;;;;;7.10;6.40;;;;;;;14.34;100.00;101656.53;5005771;28;20418;-70
2022/10/17 03:44:05;;;;;;;6.40;5.30;;;;;;;14.26;100.00;101654.84;5005489;28;20412;-71
2022/10/17 03:46:35;;;;;;;5.87;5.37;;;;;;;14.29;100.00;101661.75;5022923;28;20471;-70
2022/10/17 03:49:05;;;;;;;6.63;5.80;;;;;;;14.17;100.00;101661.56;5000459;28;20435;-70
2022/10/17 03:51:35;;;;;;;5.87;5.27;;;;;;;14.01;100.00;101661.94;5006681;28;20448;-70
2022/10/17 03:54:10;;;;;;;7.30;5.90;;;13.00;99.90;;;13.96;100.00;101658.97;5004749;28;20437;-70
2022/10/17 03:56:39;;;;;;;9.73;5.97;;;14.00;99.90;;;13.90;100.00;101655.19;5024590;28;20458;-70
2022/10/17 03:59:14;;;;;;;6.97;5.70;;;13.90;99.90;;;13.92;100.00;101658.56;5011061;23;21109;-70
2022/10/17 04:01:48;;;;;;;6.07;5.13;;;13.90;99.90;;;13.91;100.00;101651.44;4972092;28;20412;-69
2022/10/17 04:04:19;;;;;;;7.23;6.57;;;13.90;99.90;;;13.88;100.00;101646.41;4966659;28;20835;-70
2022/10/17 04:06:50;;;;;;;7.70;5.63;;;13.80;99.90;;;14.13;100.00;101643.13;4992931;28;20443;-70
2022/10/17 04:09:19;;;;;;;6.17;5.57;;;13.90;99.90;;;14.02;100.00;101641.00;4973485;28;20413;-70
2022/10/17 04:11:57;;;;;;;6.17;5.57;;;14.00;99.90;;;13.97;100.00;101641.63;4972999;28;20801;-69
2022/10/17 04:14:26;;;;;;;6.03;4.93;;;13.90;99.90;;;14.02;100.00;101638.28;4977732;28;20548;-68
2022/10/17 04:16:56;;;;;;;6.87;6.17;;;13.90;99.90;;;13.87;100.00;101649.34;4972736;28;20417;-69
2022/10/17 04:19:27;;;;;;;7.47;6.77;;;13.80;99.90;;;13.84;100.00;101644.31;4973188;28;20436;-69
2022/10/17 04:21:57;;;;;;;6.00;5.40;;;13.80;99.90;;;13.78;100.00;101642.41;4972970;28;20480;-69
2022/10/17 04:24:28;;;;;;;7.90;7.10;;;13.80;99.90;;;13.83;100.00;101643.47;4973082;28;20409;-69
2022/10/17 04:27:20;;;;;;;6.27;5.67;;;13.80;99.90;;;13.94;100.00;101650.22;4979312;28;20452;-69
2022/10/17 04:29:49;;;;;;;8.53;5.73;;;13.80;99.90;;;13.81;100.00;101650.16;4971911;28;20412;-69
2022/10/17 04:32:23;;;;;;;7.13;6.43;;;13.80;99.90;;;13.73;100.00;101645.75;4972538;28;20423;-68
2022/10/17 04:35:02;;;;;;;7.13;6.20;;;13.70;99.90;;;13.72;100.00;101649.50;4972671;28;20455;-69
2022/10/17 04:37:33;;;;;;;10.90;6.23;;;13.70;99.90;;;13.74;100.00;101649.31;4988163;28;20536;-69
2022/10/17 04:40:10;;;;;;;6.33;5.73;;;13.70;99.90;;;13.77;100.00;101648.88;4992420;28;20430;-70
2022/10/17 04:42:39;;;;;;;7.70;6.07;;;13.70;99.90;;;13.69;100.00;101643.66;4991858;28;20415;-70
2022/10/17 04:45:11;;;;;;;8.30;6.40;;;13.60;99.90;;;13.63;100.00;101647.16;4991475;28;20439;-69
2022/10/17 04:47:41;;;;;;;7.67;6.37;;;13.60;99.90;;;13.68;100.00;101650.97;4973876;28;20975;-69
2022/10/17 04:50:10;;;;;;;8.27;7.47;;;13.60;99.90;;;13.71;100.00;101644.25;4988860;28;20416;-69
2022/10/17 04:52:42;;;;;;;10.70;8.30;;;13.60;99.90;;;13.57;100.00;101650.69;4989562;28;20408;-69
2022/10/17 04:55:11;;;;;;;6.40;5.87;;;13.60;99.90;;;13.60;100.00;101643.00;4989765;28;20472;-70
2022/10/17 04:57:40;;;;;;;8.27;6.43;;;13.60;99.90;;;13.60;100.00;101643.00;4972423;28;20431;-69
2022/10/17 05:00:18;;;;;;;7.17;6.10;;;13.50;99.90;;;13.64;100.00;101635.25;4985300;28;20464;-69
2022/10/17 05:02:59;;;;;;;7.60;5.17;;;13.60;99.90;;;13.77;100.00;101643.44;4991907;28;20933;-69
2022/10/17 05:05:29;;;;;;;7.00;6.10;;;13.60;99.90;;;13.86;100.00;101636.78;4991613;28;20435;-70
2022/10/17 05:07:59;;;;;;;6.73;6.03;;;13.70;99.90;;;13.87;100.00;101635.72;4991388;28;20465;-69
2022/10/17 05:10:36;;;;;;;6.40;5.80;;;13.70;99.90;;;13.77;100.00;101632.56;4992111;28;20439;-70
2022/10/17 05:13:07;;;;;;;7.90;7.03;;;13.70;99.90;;;13.81;100.00;101642.00;4977857;28;20435;-71
2022/10/17 05:15:38;;;;;;;8.57;7.60;;;13.70;99.90;;;13.81;100.00;101642.00;4972718;28;20432;-69
2022/10/17 05:18:07;;;;;;;8.33;6.47;;;13.70;99.90;;;13.69;100.00;101640.91;4973163;28;20491;-69
2022/10/17 05:20:37;;;;;;;7.70;6.97;;;13.60;99.90;;;13.63;100.00;101636.28;4960506;28;20482;-72
2022/10/17 05:23:08;;;;;;;9.33;7.47;;;13.60;99.90;;;13.60;100.00;101648.44;4953207;28;20439;-70
2022/10/17 05:25:41;;;;;;;7.40;5.97;;;13.60;99.90;;;13.65;100.00;101640.47;4955456;28;20532;-69
2022/10/17 05:28:10;;;;;;;8.37;7.53;;;13.60;99.90;;;13.62;100.00;101645.50;4989032;28;20439;-71
2022/10/17 05:30:41;;;;;;;7.37;6.63;;;13.60;99.90;;;13.60;100.00;101642.16;4956096;28;20440;-69
2022/10/17 05:33:10;;;;;;;7.40;5.83;;;13.60;99.90;;;13.63;100.00;101647.16;4952608;28;20475;-69
2022/10/17 05:35:39;;;;;;;8.03;7.23;;;13.60;99.90;;;13.61;100.00;101638.38;4952695;28;20969;-69
2022/10/17 05:38:09;;;;;;;8.07;6.80;;;13.60;99.90;;;13.76;100.00;101641.75;4952544;28;20672;-69
2022/10/17 05:40:40;;;;;;;9.20;7.07;;;13.60;99.90;;;13.81;100.00;101639.28;4952959;28;20512;-69
2022/10/17 05:43:09;;;;;;;9.10;6.73;;;13.70;99.90;;;13.80;100.00;101637.59;4952266;28;20443;-69
2022/10/17 05:45:38;;;;;;;7.07;6.37;;;13.70;99.90;;;13.66;100.00;101641.31;4952583;28;20514;-70
2022/10/17 05:48:10;;;;;;;7.30;6.50;;;13.60;99.90;;;13.71;100.00;101646.97;4952370;28;20967;-69
2022/10/17 05:50:40;;;;;;;8.03;6.60;;;13.60;99.90;;;13.79;100.00;101641.38;4952652;28;20421;-70
2022/10/17 05:53:15;;;;;;;7.37;6.60;;;13.60;99.90;;;13.83;100.00;101642.63;4952543;28;20409;-68
2022/10/17 05:55:56;;;;;;;7.07;6.20;;;13.70;99.90;;;13.81;100.00;101647.44;4955699;28;20539;-68
2022/10/17 05:58:26;;;;;;;6.70;6.00;;;13.70;99.90;;;13.94;100.00;101650.22;4964383;28;20453;-69
2022/10/17 06:01:28;;;;;;;7.57;6.70;;;13.80;99.90;;;13.97;100.00;101660.66;4952685;28;20488;-68
2022/10/17 06:03:57;;;;;;;8.57;7.47;;;13.80;99.90;;;13.99;100.00;101663.19;4953062;28;20421;-70
2022/10/17 06:06:26;;;;;;;9.13;6.57;;;13.90;99.90;;;14.04;100.00;101661.50;4952807;28;20489;-71
2022/10/17 06:08:57;;;;;;;7.20;5.83;;;13.90;99.90;;;14.15;100.00;101660.91;4952270;28;21034;-69
2022/10/17 06:11:32;;;;;;;8.20;6.50;;;14.00;99.90;;;14.29;100.00;101670.75;4965774;28;20566;-70
2022/10/17 06:14:01;;;;;;;7.17;6.47;;;14.10;99.90;;;14.40;100.00;101679.41;4974947;28;20465;-70
2022/10/17 06:16:31;;;;;;;7.93;7.13;;;14.10;99.90;;;14.48;100.00;101679.19;4975270;28;20436;-69
2022/10/17 06:19:00;;;;;;;8.70;6.93;;;14.20;99.90;;;14.66;100.00;101673.97;4992458;28;20456;-70
2022/10/17 06:21:33;;;;;;;9.43;6.13;;;14.40;99.90;;;14.72;100.00;101687.56;4982620;28;20472;-69
2022/10/17 06:24:09;;;;;;;7.80;6.13;;;14.40;99.90;;;14.73;100.00;101691.13;4994652;28;20445;-70
2022/10/17 06:26:41;;;;;;;7.93;6.97;;;14.50;99.90;;;14.78;100.00;101688.63;4970884;28;20469;-70
2022/10/17 06:29:12;;;;;;;8.20;7.40;;;14.50;99.90;;;14.78;100.00;101692.19;4971993;28;20441;-70
2022/10/17 06:31:46;;;;;;;9.43;7.33;;;14.60;99.90;;;14.72;100.00;101687.56;4972155;28;20445;-71
2022/10/17 06:34:15;;;;;;;7.67;7.00;;;14.50;99.90;;;14.83;100.00;101687.97;4971165;28;20417;-70
2022/10/17 06:36:45;;;;;;;8.50;6.80;;;14.60;99.90;;;14.92;100.00;101698.47;4956511;28;20463;-70
2022/10/17 06:39:16;;;;;;;10.50;7.40;;;14.60;99.90;;;15.01;100.00;101699.91;4956081;28;20435;-70
2022/10/17 06:41:52;;;;;;;8.27;7.07;;;14.70;99.90;;;15.09;98.79;101699.72;4972959;28;20452;-70
2022/10/17 06:44:24;;;;;;;8.67;6.17;;;14.80;99.90;;;15.00;99.48;101700.16;4991241;28;20535;-69
2022/10/17 06:47:14;;;;;;;6.80;6.07;;;14.80;99.90;;;15.18;98.17;101703.88;4974984;28;20463;-70
2022/10/17 06:49:47;;;;;;;11.80;7.53;;;14.90;99.90;;;15.22;97.86;101704.28;4991221;28;20427;-70
2022/10/17 06:52:25;;;;;;;8.17;7.37;;;14.90;99.90;;;15.29;98.19;101707.00;4990912;28;20405;-70
2022/10/17 06:55:14;;;;;;;7.70;6.90;;;15.00;99.90;;;15.34;96.97;101702.59;4986967;28;20420;-71
2022/10/17 06:58:08;;;;;;;10.30;6.40;;;15.10;99.90;;;15.44;96.61;101697.50;4972895;28;20482;-68
2022/10/17 07:00:47;;;;;;;8.50;6.30;;;15.10;99.90;;;15.49;95.64;101688.69;4972688;28;20504;-69
2022/10/17 07:03:17;;;;;;;10.80;7.40;;;15.20;99.90;;;15.73;94.26;101701.66;4954878;28;20429;-69
2022/10/17 07:05:52;;;;;;;11.60;6.97;;;15.40;99.90;;;15.80;93.26;101696.13;4954975;28;20454;-69
2022/10/17 07:08:21;;;;;;;14.80;7.40;;;15.50;99.90;;;15.98;91.78;101699.81;4982545;28;20438;-71
2022/10/17 07:10:52;;;;;;;7.80;5.90;;;15.60;99.90;;;16.08;91.12;101704.81;4993460;28;20555;-70
2022/10/17 07:13:21;;;;;;;9.33;6.10;;;15.70;99.90;;;16.17;90.61;101702.69;4977085;28;20417;-70
2022/10/17 07:15:51;;;;;;;8.30;5.57;;;15.80;99.90;;;16.32;90.07;101711.38;4974084;28;20489;-70
2022/10/17 07:18:21;;;;;;;7.00;5.70;;;15.90;99.90;;;16.46;88.61;101719.25;4973802;28;20440;-70
2022/10/17 07:20:54;;;;;;;6.90;6.17;;;16.10;99.90;;;16.56;88.31;101734.31;4974187;28;20933;-70
2022/10/17 07:23:24;;;;;;;15.90;6.90;;;16.20;99.90;;;16.74;86.88;101727.09;4975400;28;20424;-69
2022/10/17 07:25:59;;;;;;;5.50;4.87;;;16.30;99.90;;;16.68;86.39;101727.97;4959727;28;20497;-70
2022/10/17 07:28:29;;;;;;;8.03;6.37;;;16.30;99.90;;;16.68;86.36;101727.97;4964701;28;20437;-70
2022/10/17 07:31:08;;;;;;;7.33;5.60;;;16.40;99.90;;;16.69;86.07;101729.66;4954275;28;20533;-70
2022/10/17 07:33:39;;;;;;;9.63;5.70;;;16.50;99.90;;;16.68;85.91;101735.34;4970667;28;20411;-70
2022/10/17 07:36:08;;;;;;;4.80;4.30;;;16.40;99.90;;;16.73;86.17;101730.88;4973439;28;20801;-70
2022/10/17 07:38:37;;;;;;;6.90;5.57;;;16.40;99.90;;;16.87;84.94;101726.97;4955059;28;20446;-70
2022/10/17 07:41:10;;;;;;;15.40;11.87;;;16.50;99.90;;;17.01;84.94;101724.94;4968097;28;20460;-69
2022/10/17 07:43:41;;;;;;;5.73;4.80;;;16.60;99.90;;;17.08;83.73;101723.00;4992613;28;20609;-69
2022/10/17 07:46:11;;;;;;;7.67;5.50;;;16.70;99.90;;;17.19;83.36;101726.88;4992470;28;20439;-69
2022/10/17 07:48:41;;;;;;;5.20;4.63;;;16.80;99.90;;;17.32;82.43;101729.50;5001891;28;20465;-70
2022/10/17 07:51:10;;;;;;;7.30;4.70;;;17.00;1.00;;;17.46;80.97;101733.75;4985850;28;20433;-71
2022/10/17 07:53:41;;;;;;;8.30;4.83;;;;;;;17.69;80.21;101725.72;4997215;28;20498;-70
2022/10/17 07:56:18;;;;;;;5.83;5.33;;;;;;;17.69;79.41;101739.41;5021371;28;20431;-70
2022/10/17 07:58:47;;;;;;;7.20;5.80;;;;;;;17.71;80.05;101733.72;5022309;28;20424;-72
2022/10/17 08:01:16;;;;;;;9.30;4.70;;;;;;;17.70;79.55;101737.53;5017339;28;20875;-71
2022/10/17 08:03:47;;;;;;;5.67;4.90;;;;;;;17.81;78.75;101743.03;4989979;28;20529;-70
2022/10/17 08:06:16;;;;;;;7.37;5.60;;;;;;;17.80;79.14;101733.19;4973472;28;20457;-70
2022/10/17 08:08:45;;;;;;;5.00;4.47;;;;;;;17.94;78.61;101733.84;5006686;28;20461;-70
2022/10/17 08:11:17;;;;;;;8.87;6.33;;;;;;;17.93;78.00;101731.31;4975763;28;20946;-70
2022/10/17 08:13:46;;;;;;;7.57;6.23;;;;;;;18.05;78.28;101735.81;4971738;28;20788;-70
2022/10/17 08:16:15;;;;;;;5.40;4.60;;;;;;;18.22;77.41;101730.50;4983607;28;20449;-70
2022/10/17 08:18:45;;;;;;;6.90;4.80;;;;;;;18.40;76.57;101730.44;4981955;28;20438;-70
2022/10/17 08:21:14;;;;;;;5.80;5.20;;;;;;;18.54;75.69;101729.19;4975278;28;20433;-70
2022/10/17 08:23:43;;;;;;;5.57;4.93;;;;;;;18.62;74.71;101726.16;4972943;28;20456;-69
2022/10/17 08:26:16;;;;;;;5.60;4.80;;;;;;;18.76;74.25;101725.91;4989980;28;20521;-69
2022/10/17 08:28:46;;;;;;;6.67;4.83;;;;;;;18.83;73.95;101726.66;4978149;28;20536;-70
2022/10/17 08:31:18;;;;;;;4.70;4.30;;;;;;;18.85;73.49;101730.81;4994419;28;20437;-70
2022/10/17 08:33:48;;;;;;;4.47;4.07;;;;;;;18.82;74.35;101724.97;4999708;28;20446;-70
2022/10/17 08:36:20;;;;;;;5.33;4.10;;;;;;;18.79;73.98;101729.00;4997649;28;20537;-69
2022/10/17 08:38:49;;;;;;;8.27;3.87;;;;;;;18.81;74.43;101724.16;4975965;28;20476;-69
2022/10/17 08:41:38;;;;;;;6.80;4.23;;;;;;;18.94;73.78;101717.59;4977586;28;20401;-69
2022/10/17 08:44:20;;;;;;;5.57;4.30;;;;;;;19.13;72.67;101727.38;4993910;28;20424;-69
2022/10/17 08:46:57;;;;;;;4.97;4.30;;;;;;;19.23;71.66;101727.59;5005230;28;20949;-69
2022/10/17 08:49:35;;;;;;;5.63;4.70;;;;;;;19.39;71.74;101720.56;4990132;28;20508;-70
2022/10/17 08:52:11;;;;;;;5.70;4.80;;;;;;;19.41;71.87;101718.44;4990259;28;20414;-72
2022/10/17 08:54:45;;;;;;;7.40;4.53;;;;;;;19.60;70.41;101719.13;4975734;28;20847;-70
2022/10/17 08:57:15;;;;;;;5.23;4.73;;;;;;;19.65;70.43;101719.25;4970644;28;20418;-70
2022/10/17 08:59:50;;;;;;;6.93;4.97;;;;;;;19.59;70.30;101718.31;4972055;28;20477;-70
2022/10/17 09:02:39;;;;;;;3.50;3.20;;;;;;;19.65;70.25;101722.00;5003517;28;20425;-72
2022/10/17 09:05:28;;;;;;;3.73;3.37;;;;;;;19.84;69.61;101718.00;5009530;28;20419;-70
2022/10/17 09:08:09;;;;;;;4.40;3.07;;;;;;;19.91;69.19;101721.41;5009587;28;20420;-69
2022/10/17 09:10:52;;;;;;;6.43;4.10;;;;;;;20.08;68.76;101727.81;5011741;28;20967;-71
2022/10/17 09:13:45;;;;;;;6.10;3.60;;;;;;;20.18;68.69;101729.94;4994745;28;20436;-71
2022/10/17 09:16:38;;;;;;;5.53;4.00;;;;;;;20.24;68.05;101732.50;4971373;28;20441;-70
2022/10/17 09:19:12;;;;;;;4.27;3.70;;;;;;;20.39;67.33;101735.59;4981741;28;20907;-70
2022/10/17 09:21:45;;;;;;;6.40;3.97;;;;;;;20.45;67.58;101735.69;4984612;28;20770;-70
2022/10/17 09:24:19;;;;;;;3.87;3.37;;;;;;;20.62;67.11;101733.81;4970838;28;20417;-70
2022/10/17 09:26:48;;;;;;;5.23;4.27;;;;;;;20.73;66.53;101732.88;4970365;28;20447;-69
2022/10/17 09:29:22;;;;;;;4.37;3.53;;;;;;;20.95;65.67;101724.72;4991106;28;20466;-71
2022/10/17 09:32:00;;;;;;;4.40;3.53;;;;;;;20.96;65.02;101716.19;4989356;28;20426;-70
2022/10/17 09:34:32;;;;;;;4.30;3.90;;;;;;;21.02;65.02;101715.19;4972841;28;20928;-70
2022/10/17 09:37:02;;;;;;;8.43;4.20;;;;;;;21.03;65.09;101716.88;4987482;28;20433;-69
2022/10/17 09:39:31;;;;;;;6.40;4.60;;;;;;;21.19;63.80;101720.72;4985640;28;20422;-69
2022/10/17 09:42:02;;;;;;;3.83;3.30;;;;;;;21.18;64.36;101719.88;4986861;28;20845;-70
2022/10/17 09:44:33;;;;;;;8.47;3.80;;;;;;;21.33;64.03;101716.53;4997501;28;20458;-69
2022/10/17 09:47:15;;;;;;;5.30;4.80;;;;;;;21.45;63.42;101714.47;4991348;28;20436;-70
2022/10/17 09:49:46;;;;;;;4.10;3.50;;;;;;;21.62;62.73;101717.19;4985099;28;20563;-70
2022/10/17 09:52:22;;;;;;;3.70;3.40;;;;;;;21.60;62.80;101711.94;4993357;28;20422;-71
2022/10/17 09:54:54;;;;;;;9.00;4.20;;;;;;;21.80;62.49;101713.28;4963723;28;20973;-67
2022/10/17 09:57:24;;;;;;;5.17;4.07;;;;;;;21.90;61.94;101717.00;4974521;28;20845;-68
2022/10/17 09:59:59;;;;;;;7.63;4.80;;;;;;;21.92;61.96;101716.75;4978902;28;20452;-68
2022/10/17 10:02:35;;;;;;;5.10;3.80;;;;;;;22.14;60.82;101713.97;4995044;28;20588;-68
2022/10/17 10:05:15;;;;;;;7.63;4.40;;;;;;;22.07;61.12;101706.72;4976561;28;20457;-69
2022/10/17 10:08:01;;;;;;;5.50;3.27;;;;;;;22.22;60.43;101702.50;4978746;28;20803;-68
2022/10/17 10:10:32;;;;;;;4.30;2.90;;;;;;;22.44;59.86;101712.38;4985676;28;20515;-68
2022/10/17 10:13:16;;;;;;;3.93;3.20;;;;;;;22.54;59.46;101711.63;4997881;28;20518;-68
2022/10/17 10:15:48;;;;;;;3.47;3.17;;;;;;;22.77;58.44;101716.00;4987298;28;20544;-68
2022/10/17 10:18:35;;;;;;;4.80;3.33;;;;;;;22.58;58.32;101710.00;4992424;28;20437;-69
2022/10/17 10:21:11;;;;;;;4.13;2.87;;;;;;;22.81;58.19;101712.44;4964725;28;20830;-67
2022/10/17 10:23:41;;;;;;;3.90;3.50;;;;;;;22.88;58.09;101713.06;4997739;28;20469;-68
2022/10/17 10:26:23;;;;;;;4.53;3.57;;;;;;;22.98;57.54;101715.06;4995368;28;20499;-68
2022/10/17 10:28:58;;;;;;;8.33;4.77;;;;;;;23.11;57.07;101719.28;4977148;28;20464;-68
2022/10/17 10:31:34;;;;;;;4.67;3.10;;;;;;;22.96;56.98;101726.38;4988426;28;20473;-70
2022/10/17 10:34:16;;;;;;;4.60;3.40;;;;;;;23.10;56.95;101712.94;4995079;28;20433;-69
2022/10/17 10:36:56;;;;;;;5.80;4.03;;;;;;;23.12;56.98;101710.75;4974084;28;20469;-68
2022/10/17 10:39:34;;;;;;;4.33;3.83;;;;;;;23.28;56.64;101708.91;4997705;28;20441;-68
2022/10/17 10:42:06;;;;;;;3.07;2.63;;;;;;;23.43;56.67;101719.22;4991271;28;20887;-69
2022/10/17 10:44:39;;;;;;;7.03;3.73;;;;;;;23.56;55.86;101708.56;4991538;28;20459;-68
2022/10/17 10:47:21;;;;;;;5.80;3.37;;;;;;;23.59;55.33;101719.06;4979561;28;20752;-68
2022/10/17 10:50:07;;;;;;;3.73;3.33;;;;;;;23.61;54.85;101705.81;4976979;28;21055;-69
2022/10/17 10:52:43;;;;;;;4.50;4.10;;;;;;;23.65;54.52;101701.41;4967023;28;20980;-69
2022/10/17 10:55:24;;;;;;;5.83;3.70;;;;;;;23.66;55.14;101692.03;4985640;28;20457;-68
2022/10/17 10:57:58;;;;;;;5.23;3.50;;;;;;;23.71;54.92;101691.22;4996777;28;20521;-69
2022/10/17 11:00:29;;;;;;;4.27;3.87;;;;;;;23.84;54.50;101685.16;4978152;28;20576;-67
2022/10/17 11:03:06;;;;;;;3.37;3.07;;;;;;;23.95;54.33;101697.91;4989045;28;21282;-69
2022/10/17 11:05:46;;;;;;;6.03;3.47;;;;;;;24.14;53.57;101703.78;4975623;28;20461;-68
2022/10/17 11:08:26;;;;;;;4.60;3.20;;;;;;;24.10;53.49;101703.50;4973424;28;20437;-69
2022/10/17 11:11:12;;;;;;;3.70;3.30;;;;;;;24.14;53.69;101698.25;4969888;28;20500;-68
2022/10/17 11:13:48;;;;;;;4.90;4.13;;;;;;;24.14;53.67;101695.47;4989460;28;20860;-69
2022/10/17 11:16:31;;;;;;;5.33;3.63;;;;;;;24.25;53.46;101692.47;4985048;28;20462;-69
2022/10/17 11:19:07;;;;;;;8.70;3.60;;;;;;;24.40;53.05;101686.13;4998183;28;20624;-69
2022/10/17 11:21:46;;;;;;;4.07;3.10;;;;;;;24.37;52.25;101675.63;4970367;28;20426;-68